sensor_id;sensor_type;location;lat;lon;timestamp;pressure;altitude;pressure_sealevel;temperature;humidity
25392;BME280;13329;48.402;11.718;2024-01-15T00:00:38;94933.41;;;-1.86;88.89
25392;BME280;13329;48.402;11.718;2024-01-15T00:03:03;94927.00;;;-1.83;88.37
25392;BME280;13329;48.402;11.718;2024-01-15T00:05:29;94933.19;;;-1.84;88.70
25392;BME280;13329;48.402;11.718;2024-01-15T00:07:54;94934.59;;;-1.88;88.64
25392;BME280;13329;48.402;11.718;2024-01-15T00:10:19;94932.56;;;-1.79;88.09
25392;BME280;13329;48.402;11.718;2024-01-15T00:12:44;94924.22;;;-1.82;87.98
25392;BME280;13329;48.402;11.718;2024-01-15T00:15:10;94936.97;;;-1.87;88.72
25392;BME280;13329;48.402;11.718;2024-01-15T00:17:35;94931.44;;;-1.90;88.07
25392;BME280;13329;48.402;11.718;2024-01-15T00:20:00;94929.97;;;-1.79;87.90
25392;BME280;13329;48.402;11.718;2024-01-15T00:22:26;94947.66;;;-1.76;87.82
25392;BME280;13329;48.402;11.718;2024-01-15T00:24:52;94940.09;;;-1.78;87.66
25392;BME280;13329;48.402;11.718;2024-01-15T00:27:17;94932.22;;;-1.90;88.21
25392;BME280;13329;48.402;11.718;2024-01-15T00:29:43;94935.63;;;-1.96;87.41
25392;BME280;13329;48.402;11.718;2024-01-15T00:32:08;94943.78;;;-1.99;87.04
25392;BME280;13329;48.402;11.718;2024-01-15T00:34:33;94945.59;;;-1.99;86.03
25392;BME280;13329;48.402;11.718;2024-01-15T00:36:58;94964.47;;;-1.99;85.15
25392;BME280;13329;48.402;11.718;2024-01-15T00:39:24;94955.53;;;-1.96;84.94
25392;BME280;13329;48.402;11.718;2024-01-15T00:41:49;94958.47;;;-1.93;83.88
25392;BME280;13329;48.402;11.718;2024-01-15T00:44:14;94968.44;;;-2.03;83.81
25392;BME280;13329;48.402;11.718;2024-01-15T00:46:44;94962.88;;;-2.00;83.95
25392;BME280;13329;48.402;11.718;2024-01-15T00:49:10;94968.84;;;-2.06;83.29
25392;BME280;13329;48.402;11.718;2024-01-15T00:51:36;94962.13;;;-2.14;83.36
25392;BME280;13329;48.402;11.718;2024-01-15T00:54:02;94949.00;;;-2.05;82.91
25392;BME280;13329;48.402;11.718;2024-01-15T00:56:27;94979.59;;;-2.16;82.76
25392;BME280;13329;48.402;11.718;2024-01-15T00:58:52;94957.34;;;-2.17;82.47
25392;BME280;13329;48.402;11.718;2024-01-15T01:01:18;94969.66;;;-2.12;82.42
25392;BME280;13329;48.402;11.718;2024-01-15T01:03:43;94964.09;;;-2.16;82.24
25392;BME280;13329;48.402;11.718;2024-01-15T01:06:08;94969.91;;;-2.20;81.91
25392;BME280;13329;48.402;11.718;2024-01-15T01:08:34;94962.34;;;-2.15;82.03
25392;BME280;13329;48.402;11.718;2024-01-15T01:10:59;94958.16;;;-2.16;81.59
25392;BME280;13329;48.402;11.718;2024-01-15T01:13:25;94958.94;;;-2.09;82.15
25392;BME280;13329;48.402;11.718;2024-01-15T01:15:50;94967.34;;;-2.20;81.65
25392;BME280;13329;48.402;11.718;2024-01-15T01:18:16;94966.16;;;-2.31;81.84
25392;BME280;13329;48.402;11.718;2024-01-15T01:20:41;94969.34;;;-2.29;82.06
25392;BME280;13329;48.402;11.718;2024-01-15T01:23:06;94976.91;;;-2.41;82.88
25392;BME280;13329;48.402;11.718;2024-01-15T01:25:32;94971.72;;;-2.41;82.58
25392;BME280;13329;48.402;11.718;2024-01-15T01:27:57;94975.25;;;-2.22;82.28
25392;BME280;13329;48.402;11.718;2024-01-15T01:30:22;94988.00;;;-2.27;82.97
25392;BME280;13329;48.402;11.718;2024-01-15T01:32:47;94986.66;;;-2.43;83.66
25392;BME280;13329;48.402;11.718;2024-01-15T01:35:13;94987.25;;;-2.47;83.73
25392;BME280;13329;48.402;11.718;2024-01-15T01:37:38;94995.59;;;-2.52;84.13
25392;BME280;13329;48.402;11.718;2024-01-15T01:40:04;94991.00;;;-2.50;84.18
25392;BME280;13329;48.402;11.718;2024-01-15T01:42:30;94994.38;;;-2.36;84.12
25392;BME280;13329;48.402;11.718;2024-01-15T01:44:55;94998.34;;;-2.40;84.92
25392;BME280;13329;48.402;11.718;2024-01-15T01:47:20;95003.16;;;-2.44;85.00
25392;BME280;13329;48.402;11.718;2024-01-15T01:49:46;95004.13;;;-2.45;85.36
25392;BME280;13329;48.402;11.718;2024-01-15T01:52:12;95009.28;;;-2.38;85.47
25392;BME280;13329;48.402;11.718;2024-01-15T01:54:39;95005.09;;;-2.33;85.21
25392;BME280;13329;48.402;11.718;2024-01-15T01:57:05;95011.03;;;-2.25;84.92
25392;BME280;13329;48.402;11.718;2024-01-15T01:59:32;94997.31;;;-2.26;84.67
25392;BME280;13329;48.402;11.718;2024-01-15T02:02:00;95004.72;;;-2.29;85.22
25392;BME280;13329;48.402;11.718;2024-01-15T02:04:27;94998.72;;;-2.23;85.02
25392;BME280;13329;48.402;11.718;2024-01-15T02:06:53;95005.06;;;-2.13;84.43
25392;BME280;13329;48.402;11.718;2024-01-15T02:09:18;95008.59;;;-2.07;84.94
25392;BME280;13329;48.402;11.718;2024-01-15T02:11:46;94995.88;;;-2.02;84.00
25392;BME280;13329;48.402;11.718;2024-01-15T02:14:12;94986.72;;;-1.98;84.30
25392;BME280;13329;48.402;11.718;2024-01-15T02:16:37;94991.31;;;-2.07;84.29
25392;BME280;13329;48.402;11.718;2024-01-15T02:19:02;95001.44;;;-1.98;83.37
25392;BME280;13329;48.402;11.718;2024-01-15T02:21:28;95004.03;;;-2.05;83.61
25392;BME280;13329;48.402;11.718;2024-01-15T02:23:54;94993.50;;;-2.03;83.56
25392;BME280;13329;48.402;11.718;2024-01-15T02:26:21;95000.84;;;-2.07;84.24
25392;BME280;13329;48.402;11.718;2024-01-15T02:28:47;94994.69;;;-2.06;83.52
25392;BME280;13329;48.402;11.718;2024-01-15T02:31:12;94984.59;;;-2.14;83.36
25392;BME280;13329;48.402;11.718;2024-01-15T02:33:37;94972.88;;;-2.30;83.56
25392;BME280;13329;48.402;11.718;2024-01-15T02:36:03;94986.44;;;-2.35;84.13
25392;BME280;13329;48.402;11.718;2024-01-15T02:38:28;94990.00;;;-2.36;84.50
25392;BME280;13329;48.402;11.718;2024-01-15T02:40:54;94990.63;;;-2.60;84.46
25392;BME280;13329;48.402;11.718;2024-01-15T02:43:19;94996.00;;;-2.55;85.28
25392;BME280;13329;48.402;11.718;2024-01-15T02:45:45;94994.41;;;-2.56;84.91
25392;BME280;13329;48.402;11.718;2024-01-15T02:48:11;95007.09;;;-2.41;84.32
25392;BME280;13329;48.402;11.718;2024-01-15T02:50:36;95002.94;;;-2.55;83.89
25392;BME280;13329;48.402;11.718;2024-01-15T02:53:01;95003.94;;;-2.56;84.84
25392;BME280;13329;48.402;11.718;2024-01-15T02:55:26;95006.53;;;-2.70;85.08
25392;BME280;13329;48.402;11.718;2024-01-15T02:57:54;95006.94;;;-2.79;85.83
25392;BME280;13329;48.402;11.718;2024-01-15T03:00:19;95010.31;;;-2.79;84.77
25392;BME280;13329;48.402;11.718;2024-01-15T03:02:45;95008.50;;;-2.78;85.54
25392;BME280;13329;48.402;11.718;2024-01-15T03:05:10;95016.44;;;-2.73;85.18
25392;BME280;13329;48.402;11.718;2024-01-15T03:07:35;95010.13;;;-2.77;84.91
25392;BME280;13329;48.402;11.718;2024-01-15T03:10:01;95004.34;;;-2.79;85.12
25392;BME280;13329;48.402;11.718;2024-01-15T03:12:26;95016.66;;;-2.95;85.73
25392;BME280;13329;48.402;11.718;2024-01-15T03:14:52;95013.50;;;-2.97;85.90
25392;BME280;13329;48.402;11.718;2024-01-15T03:17:17;95013.06;;;-2.94;86.13
25392;BME280;13329;48.402;11.718;2024-01-15T03:19:42;95008.34;;;-2.97;86.07
25392;BME280;13329;48.402;11.718;2024-01-15T03:22:08;95006.72;;;-2.78;85.33
25392;BME280;13329;48.402;11.718;2024-01-15T03:24:34;94999.19;;;-2.79;84.62
25392;BME280;13329;48.402;11.718;2024-01-15T03:26:59;94993.22;;;-2.80;84.04
25392;BME280;13329;48.402;11.718;2024-01-15T03:29:26;94997.59;;;-2.80;84.51
25392;BME280;13329;48.402;11.718;2024-01-15T03:31:51;94994.44;;;-2.89;84.65
25392;BME280;13329;48.402;11.718;2024-01-15T03:34:17;94989.47;;;-3.04;85.59
25392;BME280;13329;48.402;11.718;2024-01-15T03:36:42;94990.84;;;-2.88;84.45
25392;BME280;13329;48.402;11.718;2024-01-15T03:39:07;94989.28;;;-2.96;84.25
25392;BME280;13329;48.402;11.718;2024-01-15T03:41:33;94974.00;;;-2.91;84.04
25392;BME280;13329;48.402;11.718;2024-01-15T03:43:59;94978.94;;;-2.89;83.94
25392;BME280;13329;48.402;11.718;2024-01-15T03:46:24;94975.75;;;-2.98;83.99
25392;BME280;13329;48.402;11.718;2024-01-15T03:48:50;94975.97;;;-3.06;85.29
25392;BME280;13329;48.402;11.718;2024-01-15T03:51:17;94975.75;;;-2.98;84.70
25392;BME280;13329;48.402;11.718;2024-01-15T03:53:42;94982.09;;;-3.07;85.15
25392;BME280;13329;48.402;11.718;2024-01-15T03:56:07;94983.31;;;-3.10;85.25
25392;BME280;13329;48.402;11.718;2024-01-15T03:58:33;94993.63;;;-3.16;84.71
25392;BME280;13329;48.402;11.718;2024-01-15T04:00:58;94991.22;;;-3.24;85.89
25392;BME280;13329;48.402;11.718;2024-01-15T04:03:23;94985.06;;;-3.37;86.51
25392;BME280;13329;48.402;11.718;2024-01-15T04:05:49;94988.00;;;-3.46;86.49
25392;BME280;13329;48.402;11.718;2024-01-15T04:08:14;94991.22;;;-3.38;86.70
25392;BME280;13329;48.402;11.718;2024-01-15T04:10:39;94989.22;;;-3.36;86.64
25392;BME280;13329;48.402;11.718;2024-01-15T04:13:05;94978.09;;;-3.36;86.49
25392;BME280;13329;48.402;11.718;2024-01-15T04:15:30;94979.34;;;-3.25;86.55
25392;BME280;13329;48.402;11.718;2024-01-15T04:17:55;94983.28;;;-3.29;86.51
25392;BME280;13329;48.402;11.718;2024-01-15T04:20:21;94980.09;;;-3.38;86.01
25392;BME280;13329;48.402;11.718;2024-01-15T04:22:46;94986.63;;;-3.36;86.25
25392;BME280;13329;48.402;11.718;2024-01-15T04:25:11;94982.88;;;-3.33;86.18
25392;BME280;13329;48.402;11.718;2024-01-15T04:27:37;94982.53;;;-3.10;86.21
25392;BME280;13329;48.402;11.718;2024-01-15T04:30:02;94983.09;;;-3.21;85.87
25392;BME280;13329;48.402;11.718;2024-01-15T04:32:27;94988.84;;;-3.19;85.03
25392;BME280;13329;48.402;11.718;2024-01-15T04:34:53;94987.25;;;-3.40;86.61
25392;BME280;13329;48.402;11.718;2024-01-15T04:37:18;94984.88;;;-3.22;86.35
25392;BME280;13329;48.402;11.718;2024-01-15T04:39:43;94984.09;;;-3.02;84.54
25392;BME280;13329;48.402;11.718;2024-01-15T04:42:09;94984.91;;;-2.95;83.37
25392;BME280;13329;48.402;11.718;2024-01-15T04:44:34;94977.75;;;-3.06;83.89
25392;BME280;13329;48.402;11.718;2024-01-15T04:46:59;94980.53;;;-3.15;83.09
25392;BME280;13329;48.402;11.718;2024-01-15T04:49:24;94980.91;;;-3.24;83.99
25392;BME280;13329;48.402;11.718;2024-01-15T04:51:52;94981.69;;;-3.17;83.94
25392;BME280;13329;48.402;11.718;2024-01-15T04:54:18;94975.75;;;-3.24;84.44
25392;BME280;13329;48.402;11.718;2024-01-15T04:56:43;94975.94;;;-3.32;85.86
25392;BME280;13329;48.402;11.718;2024-01-15T04:59:10;94972.16;;;-3.37;86.00
25392;BME280;13329;48.402;11.718;2024-01-15T05:01:35;94972.00;;;-3.15;85.15
25392;BME280;13329;48.402;11.718;2024-01-15T05:04:00;94964.25;;;-3.08;84.24
25392;BME280;13329;48.402;11.718;2024-01-15T05:06:26;94965.25;;;-3.03;84.72
25392;BME280;13329;48.402;11.718;2024-01-15T05:08:51;94962.66;;;-2.90;84.18
25392;BME280;13329;48.402;11.718;2024-01-15T05:11:17;94961.88;;;-2.77;83.77
25392;BME280;13329;48.402;11.718;2024-01-15T05:13:42;94961.84;;;-2.70;82.26
25392;BME280;13329;48.402;11.718;2024-01-15T05:16:07;94963.03;;;-2.66;81.70
25392;BME280;13329;48.402;11.718;2024-01-15T05:18:33;94967.03;;;-2.84;82.90
25392;BME280;13329;48.402;11.718;2024-01-15T05:20:58;94968.41;;;-2.88;82.73
25392;BME280;13329;48.402;11.718;2024-01-15T05:23:23;94965.66;;;-2.73;83.42
25392;BME280;13329;48.402;11.718;2024-01-15T05:25:49;94969.63;;;-2.77;82.71
25392;BME280;13329;48.402;11.718;2024-01-15T05:28:14;94971.41;;;-2.91;83.81
25392;BME280;13329;48.402;11.718;2024-01-15T05:30:39;94973.78;;;-2.82;83.29
25392;BME280;13329;48.402;11.718;2024-01-15T05:33:05;94980.72;;;-2.90;84.11
25392;BME280;13329;48.402;11.718;2024-01-15T05:35:30;94972.78;;;-2.81;83.60
25392;BME280;13329;48.402;11.718;2024-01-15T05:37:55;94974.94;;;-2.65;82.65
25392;BME280;13329;48.402;11.718;2024-01-15T05:40:21;94960.44;;;-2.60;82.59
25392;BME280;13329;48.402;11.718;2024-01-15T05:42:46;94957.88;;;-2.66;82.68
25392;BME280;13329;48.402;11.718;2024-01-15T05:45:11;94951.31;;;-2.49;81.60
25392;BME280;13329;48.402;11.718;2024-01-15T05:47:36;94957.03;;;-2.40;80.44
25392;BME280;13329;48.402;11.718;2024-01-15T05:50:02;94956.59;;;-2.30;80.42
25392;BME280;13329;48.402;11.718;2024-01-15T05:52:27;94962.38;;;-2.28;79.53
25392;BME280;13329;48.402;11.718;2024-01-15T05:54:53;94958.22;;;-2.29;79.69
25392;BME280;13329;48.402;11.718;2024-01-15T05:57:18;94964.13;;;-2.22;79.43
25392;BME280;13329;48.402;11.718;2024-01-15T05:59:44;94959.19;;;-2.30;80.61
25392;BME280;13329;48.402;11.718;2024-01-15T06:02:10;94957.78;;;-2.26;81.00
25392;BME280;13329;48.402;11.718;2024-01-15T06:04:35;94955.03;;;-2.25;80.76
25392;BME280;13329;48.402;11.718;2024-01-15T06:07:01;94959.97;;;-2.23;81.31
25392;BME280;13329;48.402;11.718;2024-01-15T06:09:26;94962.56;;;-2.30;81.61
25392;BME280;13329;48.402;11.718;2024-01-15T06:11:52;94970.53;;;-2.45;81.83
25392;BME280;13329;48.402;11.718;2024-01-15T06:14:18;94970.97;;;-2.48;83.11
25392;BME280;13329;48.402;11.718;2024-01-15T06:16:43;94979.28;;;-2.46;83.28
25392;BME280;13329;48.402;11.718;2024-01-15T06:19:08;94974.91;;;-2.45;83.66
25392;BME280;13329;48.402;11.718;2024-01-15T06:21:33;94976.94;;;-2.61;84.20
25392;BME280;13329;48.402;11.718;2024-01-15T06:23:59;94972.56;;;-2.60;84.89
25392;BME280;13329;48.402;11.718;2024-01-15T06:26:24;94971.16;;;-2.56;86.02
25392;BME280;13329;48.402;11.718;2024-01-15T06:28:50;94975.72;;;-2.45;85.35
25392;BME280;13329;48.402;11.718;2024-01-15T06:31:15;94962.19;;;-2.34;84.62
25392;BME280;13329;48.402;11.718;2024-01-15T06:33:41;94960.91;;;-2.04;83.90
25392;BME280;13329;48.402;11.718;2024-01-15T06:36:06;94964.41;;;-1.86;81.66
25392;BME280;13329;48.402;11.718;2024-01-15T06:38:32;94962.19;;;-1.82;80.51
25392;BME280;13329;48.402;11.718;2024-01-15T06:40:57;94953.47;;;-1.81;80.86
25392;BME280;13329;48.402;11.718;2024-01-15T06:43:23;94942.91;;;-1.79;81.18
25392;BME280;13329;48.402;11.718;2024-01-15T06:45:48;94934.66;;;-1.63;78.71
25392;BME280;13329;48.402;11.718;2024-01-15T06:48:13;94936.25;;;-1.62;78.88
25392;BME280;13329;48.402;11.718;2024-01-15T06:50:41;94951.44;;;-1.79;78.96
25392;BME280;13329;48.402;11.718;2024-01-15T06:53:06;94943.31;;;-1.83;80.46
25392;BME280;13329;48.402;11.718;2024-01-15T06:55:31;94947.69;;;-1.83;80.80
25392;BME280;13329;48.402;11.718;2024-01-15T06:57:57;94949.19;;;-1.69;79.38
25392;BME280;13329;48.402;11.718;2024-01-15T07:00:22;94946.78;;;-1.64;79.68
25392;BME280;13329;48.402;11.718;2024-01-15T07:02:47;94957.47;;;-1.53;79.13
25392;BME280;13329;48.402;11.718;2024-01-15T07:05:13;94958.38;;;-1.73;79.14
25392;BME280;13329;48.402;11.718;2024-01-15T07:07:38;94947.25;;;-1.73;79.81
25392;BME280;13329;48.402;11.718;2024-01-15T07:10:04;94944.00;;;-1.62;79.78
25392;BME280;13329;48.402;11.718;2024-01-15T07:12:30;94955.94;;;-1.61;80.30
25392;BME280;13329;48.402;11.718;2024-01-15T07:14:58;94958.34;;;-1.66;79.53
25392;BME280;13329;48.402;11.718;2024-01-15T07:17:23;94952.00;;;-1.70;80.84
25392;BME280;13329;48.402;11.718;2024-01-15T07:19:49;94951.16;;;-1.64;79.38
25392;BME280;13329;48.402;11.718;2024-01-15T07:22:14;94961.13;;;-1.68;79.17
25392;BME280;13329;48.402;11.718;2024-01-15T07:24:40;94956.97;;;-1.69;80.88
25392;BME280;13329;48.402;11.718;2024-01-15T07:27:05;94946.44;;;-1.67;80.42
25392;BME280;13329;48.402;11.718;2024-01-15T07:29:31;94941.00;;;-1.59;79.72
25392;BME280;13329;48.402;11.718;2024-01-15T07:31:58;94925.03;;;-1.49;79.87
25392;BME280;13329;48.402;11.718;2024-01-15T07:34:23;94920.47;;;-1.54;79.09
25392;BME280;13329;48.402;11.718;2024-01-15T07:36:49;94933.50;;;-1.36;78.32
25392;BME280;13329;48.402;11.718;2024-01-15T07:39:14;94928.84;;;-1.52;77.51
25392;BME280;13329;48.402;11.718;2024-01-15T07:41:39;94925.41;;;-1.46;77.81
25392;BME280;13329;48.402;11.718;2024-01-15T07:44:05;94934.91;;;-1.40;77.52
25392;BME280;13329;48.402;11.718;2024-01-15T07:46:30;94934.34;;;-1.42;77.21
25392;BME280;13329;48.402;11.718;2024-01-15T07:48:55;94932.16;;;-1.45;77.47
25392;BME280;13329;48.402;11.718;2024-01-15T07:51:23;94946.66;;;-1.44;76.78
25392;BME280;13329;48.402;11.718;2024-01-15T07:53:49;94946.25;;;-1.41;77.42
25392;BME280;13329;48.402;11.718;2024-01-15T07:56:15;94901.88;;;-1.69;76.67
25392;BME280;13329;48.402;11.718;2024-01-15T07:58:41;94935.66;;;-1.33;76.57
25392;BME280;13329;48.402;11.718;2024-01-15T08:01:06;94938.81;;;-1.31;76.34
25392;BME280;13329;48.402;11.718;2024-01-15T08:03:31;94923.47;;;-1.25;74.91
25392;BME280;13329;48.402;11.718;2024-01-15T08:05:57;94921.03;;;-1.20;75.53
25392;BME280;13329;48.402;11.718;2024-01-15T08:08:24;94939.59;;;-0.98;75.81
25392;BME280;13329;48.402;11.718;2024-01-15T08:10:50;94932.00;;;-0.13;71.70
25392;BME280;13329;48.402;11.718;2024-01-15T08:13:15;94918.94;;;0.42;69.22
25392;BME280;13329;48.402;11.718;2024-01-15T08:15:41;94916.84;;;0.62;68.89
25392;BME280;13329;48.402;11.718;2024-01-15T08:18:06;94911.16;;;0.42;69.02
25392;BME280;13329;48.402;11.718;2024-01-15T08:20:32;94900.75;;;0.30;69.62
25392;BME280;13329;48.402;11.718;2024-01-15T08:22:57;94905.81;;;0.25;68.95
25392;BME280;13329;48.402;11.718;2024-01-15T08:25:22;94911.81;;;-0.11;70.45
25392;BME280;13329;48.402;11.718;2024-01-15T08:27:48;94902.97;;;-0.22;71.16
25392;BME280;13329;48.402;11.718;2024-01-15T08:30:13;94916.44;;;-0.32;72.13
25392;BME280;13329;48.402;11.718;2024-01-15T08:32:39;94902.63;;;-0.26;70.59
25392;BME280;13329;48.402;11.718;2024-01-15T08:35:08;94896.72;;;-0.33;70.78
25392;BME280;13329;48.402;11.718;2024-01-15T08:37:33;94906.00;;;-0.43;70.13
25392;BME280;13329;48.402;11.718;2024-01-15T08:39:59;94882.53;;;-0.48;69.41
25392;BME280;13329;48.402;11.718;2024-01-15T08:42:24;94902.94;;;-0.52;69.69
25392;BME280;13329;48.402;11.718;2024-01-15T08:44:49;94884.06;;;-0.41;68.59
25392;BME280;13329;48.402;11.718;2024-01-15T08:47:15;94885.91;;;-0.30;66.58
25392;BME280;13329;48.402;11.718;2024-01-15T08:49:41;94878.22;;;-0.18;65.55
25392;BME280;13329;48.402;11.718;2024-01-15T08:52:08;94885.34;;;-0.13;65.01
25392;BME280;13329;48.402;11.718;2024-01-15T08:54:33;94883.59;;;-0.01;64.13
25392;BME280;13329;48.402;11.718;2024-01-15T08:56:58;94888.38;;;0.44;62.88
25392;BME280;13329;48.402;11.718;2024-01-15T08:59:24;94895.91;;;0.87;60.16
25392;BME280;13329;48.402;11.718;2024-01-15T09:01:54;94916.38;;;1.42;59.99
25392;BME280;13329;48.402;11.718;2024-01-15T09:04:21;94909.56;;;2.17;58.86
25392;BME280;13329;48.402;11.718;2024-01-15T09:06:47;94913.09;;;2.39;58.47
25392;BME280;13329;48.402;11.718;2024-01-15T09:09:12;94929.78;;;2.26;58.57
25392;BME280;13329;48.402;11.718;2024-01-15T09:11:39;94918.16;;;2.74;58.51
25392;BME280;13329;48.402;11.718;2024-01-15T09:14:04;94919.63;;;2.70;58.04
25392;BME280;13329;48.402;11.718;2024-01-15T09:16:29;94922.78;;;2.72;58.50
25392;BME280;13329;48.402;11.718;2024-01-15T09:18:55;94921.47;;;1.49;61.31
25392;BME280;13329;48.402;11.718;2024-01-15T09:21:22;94911.97;;;0.96;62.75
25392;BME280;13329;48.402;11.718;2024-01-15T09:23:48;94919.50;;;0.86;62.92
25392;BME280;13329;48.402;11.718;2024-01-15T09:26:13;94903.63;;;0.52;63.01
25392;BME280;13329;48.402;11.718;2024-01-15T09:28:38;94916.50;;;0.59;62.24
25392;BME280;13329;48.402;11.718;2024-01-15T09:31:03;94919.91;;;0.59;62.92
25392;BME280;13329;48.402;11.718;2024-01-15T09:33:29;94911.63;;;0.50;62.42
25392;BME280;13329;48.402;11.718;2024-01-15T09:35:54;94914.00;;;0.52;62.74
25392;BME280;13329;48.402;11.718;2024-01-15T09:38:20;94924.56;;;0.39;63.04
25392;BME280;13329;48.402;11.718;2024-01-15T09:40:45;94933.34;;;0.38;62.14
25392;BME280;13329;48.402;11.718;2024-01-15T09:43:12;94930.50;;;0.58;61.75
25392;BME280;13329;48.402;11.718;2024-01-15T09:45:38;94929.75;;;0.69;61.71
25392;BME280;13329;48.402;11.718;2024-01-15T09:48:04;94933.97;;;0.93;61.52
25392;BME280;13329;48.402;11.718;2024-01-15T09:50:30;94937.94;;;1.08;61.11
25392;BME280;13329;48.402;11.718;2024-01-15T09:52:56;94941.63;;;1.00;61.01
25392;BME280;13329;48.402;11.718;2024-01-15T09:55:22;94945.56;;;0.79;62.24
25392;BME280;13329;48.402;11.718;2024-01-15T09:57:49;94946.00;;;0.76;62.30
25392;BME280;13329;48.402;11.718;2024-01-15T10:00:17;94938.41;;;1.28;62.31
25392;BME280;13329;48.402;11.718;2024-01-15T10:02:43;94931.75;;;1.44;61.38
25392;BME280;13329;48.402;11.718;2024-01-15T10:05:09;94927.44;;;1.14;61.76
25392;BME280;13329;48.402;11.718;2024-01-15T10:07:35;94929.72;;;1.11;61.81
25392;BME280;13329;48.402;11.718;2024-01-15T10:10:01;94927.88;;;0.99;62.43
25392;BME280;13329;48.402;11.718;2024-01-15T10:12:26;94923.94;;;0.97;63.48
25392;BME280;13329;48.402;11.718;2024-01-15T10:14:52;94912.47;;;0.74;64.38
25392;BME280;13329;48.402;11.718;2024-01-15T10:17:17;94914.72;;;0.59;64.49
25392;BME280;13329;48.402;11.718;2024-01-15T10:19:44;94911.47;;;0.34;66.58
25392;BME280;13329;48.402;11.718;2024-01-15T10:22:10;94894.41;;;0.26;69.74
25392;BME280;13329;48.402;11.718;2024-01-15T10:24:40;94895.03;;;0.40;70.64
25392;BME280;13329;48.402;11.718;2024-01-15T10:27:06;94880.00;;;0.00;72.99
25392;BME280;13329;48.402;11.718;2024-01-15T10:29:32;94874.06;;;0.11;71.74
25392;BME280;13329;48.402;11.718;2024-01-15T10:31:58;94876.34;;;0.19;70.31
25392;BME280;13329;48.402;11.718;2024-01-15T10:34:25;94876.28;;;0.38;68.90
25392;BME280;13329;48.402;11.718;2024-01-15T10:36:50;94880.13;;;0.47;69.36
25392;BME280;13329;48.402;11.718;2024-01-15T10:39:23;94883.13;;;0.20;72.12
25392;BME280;13329;48.402;11.718;2024-01-15T10:41:51;94879.78;;;0.97;72.70
25392;BME280;13329;48.402;11.718;2024-01-15T10:44:17;94880.47;;;2.20;68.32
25392;BME280;13329;48.402;11.718;2024-01-15T10:46:44;94875.16;;;1.86;69.29
25392;BME280;13329;48.402;11.718;2024-01-15T10:49:11;94879.78;;;1.09;71.39
25392;BME280;13329;48.402;11.718;2024-01-15T10:51:36;94892.38;;;0.58;73.02
25392;BME280;13329;48.402;11.718;2024-01-15T10:54:01;94877.34;;;0.18;73.67
25392;BME280;13329;48.402;11.718;2024-01-15T10:56:30;94881.75;;;0.48;73.73
25392;BME280;13329;48.402;11.718;2024-01-15T10:58:56;94879.47;;;0.40;74.47
25392;BME280;13329;48.402;11.718;2024-01-15T11:01:22;94887.13;;;0.46;74.63
25392;BME280;13329;48.402;11.718;2024-01-15T11:03:48;94885.13;;;0.60;72.94
25392;BME280;13329;48.402;11.718;2024-01-15T11:06:17;94870.81;;;0.69;72.36
25392;BME280;13329;48.402;11.718;2024-01-15T11:08:46;94875.28;;;0.39;73.90
25392;BME280;13329;48.402;11.718;2024-01-15T11:11:13;94877.59;;;0.29;74.26
25392;BME280;13329;48.402;11.718;2024-01-15T11:16:07;94868.53;;;2.07;69.15
25392;BME280;13329;48.402;11.718;2024-01-15T11:18:40;94871.81;;;3.27;64.04
25392;BME280;13329;48.402;11.718;2024-01-15T11:28:52;94840.22;;;4.11;59.63
25392;BME280;13329;48.402;11.718;2024-01-15T11:31:17;94845.94;;;4.62;57.06
25392;BME280;13329;48.402;11.718;2024-01-15T11:33:49;94841.03;;;4.38;56.38
25392;BME280;13329;48.402;11.718;2024-01-15T11:36:15;94836.78;;;4.32;57.49
25392;BME280;13329;48.402;11.718;2024-01-15T11:38:40;94841.38;;;4.79;56.76
25392;BME280;13329;48.402;11.718;2024-01-15T11:41:15;94841.47;;;4.89;55.76
25392;BME280;13329;48.402;11.718;2024-01-15T11:43:43;94846.22;;;4.11;56.42
25392;BME280;13329;48.402;11.718;2024-01-15T11:46:12;94840.22;;;3.23;58.54
25392;BME280;13329;48.402;11.718;2024-01-15T11:48:43;94838.44;;;2.73;60.29
25392;BME280;13329;48.402;11.718;2024-01-15T11:51:11;94836.91;;;2.44;60.57
25392;BME280;13329;48.402;11.718;2024-01-15T11:53:48;94834.41;;;2.20;60.43
25392;BME280;13329;48.402;11.718;2024-01-15T11:56:16;94839.94;;;2.24;62.50
25392;BME280;13329;48.402;11.718;2024-01-15T11:58:42;94820.28;;;1.99;62.66
25392;BME280;13329;48.402;11.718;2024-01-15T12:01:08;94835.44;;;2.02;62.69
25392;BME280;13329;48.402;11.718;2024-01-15T12:03:34;94830.94;;;1.86;62.85
25392;BME280;13329;48.402;11.718;2024-01-15T12:05:59;94817.97;;;2.31;62.50
25392;BME280;13329;48.402;11.718;2024-01-15T12:08:25;94810.53;;;2.23;63.73
25392;BME280;13329;48.402;11.718;2024-01-15T12:10:51;94814.63;;;2.02;64.33
25392;BME280;13329;48.402;11.718;2024-01-15T12:13:17;94815.31;;;1.69;65.48
25392;BME280;13329;48.402;11.718;2024-01-15T12:15:44;94809.75;;;1.77;65.67
25392;BME280;13329;48.402;11.718;2024-01-15T12:18:11;94804.03;;;2.71;62.73
25392;BME280;13329;48.402;11.718;2024-01-15T12:20:37;94788.00;;;2.12;62.86
25392;BME280;13329;48.402;11.718;2024-01-15T12:23:02;94777.91;;;2.33;63.67
25392;BME280;13329;48.402;11.718;2024-01-15T12:25:31;94790.09;;;1.98;64.18
25392;BME280;13329;48.402;11.718;2024-01-15T12:27:58;94799.53;;;2.50;63.02
25392;BME280;13329;48.402;11.718;2024-01-15T12:30:26;94800.72;;;3.15;63.49
25392;BME280;13329;48.402;11.718;2024-01-15T12:32:51;94800.16;;;2.57;63.33
25392;BME280;13329;48.402;11.718;2024-01-15T12:35:16;94801.09;;;2.17;64.62
25392;BME280;13329;48.402;11.718;2024-01-15T12:37:43;94804.53;;;2.06;65.76
25392;BME280;13329;48.402;11.718;2024-01-15T12:40:10;94790.97;;;1.75;66.99
25392;BME280;13329;48.402;11.718;2024-01-15T12:42:42;94805.56;;;1.36;66.54
25392;BME280;13329;48.402;11.718;2024-01-15T12:45:09;94783.97;;;1.36;67.25
25392;BME280;13329;48.402;11.718;2024-01-15T12:47:36;94788.69;;;1.39;67.48
25392;BME280;13329;48.402;11.718;2024-01-15T12:50:01;94780.00;;;1.45;67.20
25392;BME280;13329;48.402;11.718;2024-01-15T12:52:28;94791.72;;;1.59;66.73
25392;BME280;13329;48.402;11.718;2024-01-15T12:54:53;94795.13;;;1.48;67.56